createdAt,value
2023-04-20T00:00:12.456Z,0.80
2023-04-20T00:02:44.448Z,0.80
2023-04-20T00:05:15.071Z,0.75
2023-04-20T00:07:43.845Z,0.93
2023-04-20T00:10:12.572Z,1.20
2023-04-20T00:12:41.326Z,1.10
2023-04-20T00:15:10.492Z,1.00
2023-04-20T00:17:39.611Z,0.90
2023-04-20T00:20:09.980Z,1.15
2023-04-20T00:22:40.309Z,1.00
2023-04-20T00:25:09.382Z,1.00
2023-04-20T00:27:38.100Z,1.20
2023-04-20T00:30:08.743Z,1.30
2023-04-20T00:32:38.167Z,1.00
2023-04-20T00:35:09.418Z,1.30
2023-04-20T00:37:38.178Z,1.33
2023-04-20T00:40:09.119Z,1.00
2023-04-20T00:42:40.668Z,1.10
2023-04-20T00:45:09.984Z,1.30
2023-04-20T00:47:39.184Z,0.98
2023-04-20T00:50:08.700Z,1.08
2023-04-20T00:52:39.055Z,1.30
2023-04-20T00:55:09.507Z,1.13
2023-04-20T00:57:40.279Z,1.60
2023-04-20T01:00:10.679Z,1.17
2023-04-20T01:02:39.407Z,1.20
2023-04-20T01:05:10.363Z,1.00
2023-04-20T01:07:39.171Z,1.20
2023-04-20T01:10:10.619Z,1.05
2023-04-20T01:12:42.178Z,1.30
2023-04-20T01:15:12.561Z,2.10
2023-04-20T01:17:41.555Z,1.00
2023-04-20T01:20:12.614Z,1.10
2023-04-20T01:22:46.977Z,1.05
2023-04-20T01:25:16.026Z,0.90
2023-04-20T01:27:44.786Z,1.13
2023-04-20T01:30:14.178Z,1.52
2023-04-20T01:32:43.028Z,1.30
2023-04-20T01:35:12.153Z,1.13
2023-04-20T01:37:40.982Z,1.33
2023-04-20T01:40:12.636Z,1.05
2023-04-20T01:42:41.860Z,1.55
2023-04-20T01:45:10.966Z,1.42
2023-04-20T01:47:39.736Z,1.40
2023-04-20T01:50:09.380Z,1.23
2023-04-20T01:52:38.231Z,1.42
2023-04-20T01:55:07.370Z,1.10
2023-04-20T01:57:37.482Z,1.20
2023-04-20T02:00:06.856Z,1.40
2023-04-20T02:02:42.862Z,1.17
2023-04-20T02:05:13.028Z,2.50
2023-04-20T02:07:41.743Z,1.48
2023-04-20T02:10:10.806Z,2.58
2023-04-20T02:12:40.974Z,1.88
2023-04-20T02:15:10.537Z,2.92
2023-04-20T02:17:41.138Z,1.80
2023-04-20T02:20:10.472Z,1.85
2023-04-20T02:22:39.363Z,2.42
2023-04-20T02:25:09.166Z,1.90
2023-04-20T02:27:38.958Z,1.75
2023-04-20T02:30:10.560Z,2.17
2023-04-20T02:32:39.470Z,1.65
2023-04-20T02:35:08.915Z,2.70
2023-04-20T02:37:37.701Z,1.50
2023-04-20T02:40:07.161Z,2.20
2023-04-20T02:42:36.045Z,1.60
2023-04-20T02:45:07.715Z,1.80
2023-04-20T02:47:38.766Z,2.67
2023-04-20T02:50:09.271Z,1.63
2023-04-20T02:52:52.957Z,2.70
2023-04-20T02:55:21.933Z,2.33
2023-04-20T02:57:54.252Z,2.00
2023-04-20T03:00:27.519Z,2.70
2023-04-20T03:03:06.769Z,2.75
2023-04-20T03:05:36.075Z,2.70
2023-04-20T03:08:07.355Z,2.53
2023-04-20T03:10:36.250Z,2.35
2023-04-20T03:13:13.797Z,2.20
2023-04-20T03:16:01.835Z,3.40
2023-04-20T03:18:37.311Z,2.67
2023-04-20T03:21:06.286Z,2.47
2023-04-20T03:23:35.748Z,4.10
2023-04-20T03:26:05.523Z,5.15
2023-04-20T03:28:47.391Z,2.30
2023-04-20T03:31:20.787Z,2.92
2023-04-20T03:33:51.032Z,2.75
2023-04-20T03:36:20.080Z,3.00
2023-04-20T03:38:48.766Z,3.45
2023-04-20T03:41:17.464Z,3.30
2023-04-20T03:43:46.412Z,3.72
2023-04-20T03:46:15.399Z,3.15
2023-04-20T03:48:44.315Z,3.05
2023-04-20T03:51:14.375Z,2.85
2023-04-20T03:53:43.135Z,2.67
2023-04-20T03:56:13.762Z,3.35
2023-04-20T03:58:42.482Z,4.10
2023-04-20T04:01:15.859Z,3.92
2023-04-20T04:03:49.305Z,4.28
2023-04-20T04:06:20.378Z,4.07
2023-04-20T04:08:49.501Z,3.63
2023-04-20T04:11:18.242Z,3.45
2023-04-20T04:13:47.310Z,3.50
2023-04-20T04:16:16.180Z,4.15
2023-04-20T04:18:45.848Z,3.65
2023-04-20T04:21:14.696Z,3.83
2023-04-20T04:23:48.940Z,3.28
2023-04-20T04:26:24.701Z,2.92
2023-04-20T04:28:55.356Z,3.25
2023-04-20T04:31:24.435Z,3.47
2023-04-20T04:33:53.532Z,2.78
2023-04-20T04:36:46.201Z,3.17
2023-04-20T04:39:19.946Z,3.00
2023-04-20T04:42:00.769Z,3.78
2023-04-20T04:44:37.507Z,2.05
2023-04-20T04:47:09.610Z,2.60
2023-04-20T04:49:40.681Z,2.00
2023-04-20T04:52:10.361Z,1.67
2023-04-20T04:54:40.409Z,2.25
2023-04-20T04:57:09.306Z,2.38
2023-04-20T04:59:38.088Z,2.30
2023-04-20T05:02:06.865Z,2.30
2023-04-20T05:04:35.951Z,2.58
2023-04-20T05:07:04.934Z,2.50
2023-04-20T05:09:34.303Z,2.70
2023-04-20T05:12:04.600Z,2.55
2023-04-20T05:14:33.687Z,2.22
2023-04-20T05:17:02.494Z,2.08
2023-04-20T05:19:31.176Z,2.90
2023-04-20T05:21:59.892Z,2.55
2023-04-20T05:24:28.957Z,2.85
2023-04-20T05:26:57.686Z,1.83
2023-04-20T05:29:27.713Z,1.95
2023-04-20T05:31:56.445Z,2.08
2023-04-20T05:34:25.314Z,4.03
2023-04-20T05:36:54.934Z,2.00
2023-04-20T05:39:23.782Z,2.08
2023-04-20T05:41:52.484Z,1.83
2023-04-20T05:44:21.222Z,1.92
2023-04-20T05:46:51.341Z,1.95
2023-04-20T05:49:20.139Z,2.22
2023-04-20T05:51:49.069Z,2.35
2023-04-20T05:54:17.730Z,3.75
2023-04-20T05:56:47.085Z,1.63
2023-04-20T05:59:16.996Z,2.80
2023-04-20T06:01:45.942Z,1.63
2023-04-20T06:04:16.258Z,1.38
2023-04-20T06:06:45.097Z,1.50
2023-04-20T06:09:14.247Z,2.47
2023-04-20T06:11:42.959Z,2.53
2023-04-20T06:14:14.039Z,1.80
2023-04-20T06:16:42.910Z,2.05
2023-04-20T06:19:11.665Z,1.42
2023-04-20T06:21:41.830Z,1.73
2023-04-20T06:24:10.690Z,1.80
2023-04-20T06:26:39.411Z,2.03
2023-04-20T06:29:08.025Z,2.72
2023-04-20T06:31:37.164Z,1.95
2023-04-20T06:34:05.913Z,2.78
2023-04-20T06:36:34.685Z,1.50
2023-04-20T06:39:05.266Z,1.60
2023-04-20T06:41:34.057Z,2.38
2023-04-20T06:44:07.733Z,2.30
2023-04-20T06:46:36.560Z,1.45
2023-04-20T06:49:05.370Z,1.90
2023-04-20T06:51:34.734Z,1.60
2023-04-20T06:54:04.997Z,1.50
2023-04-20T06:56:35.492Z,1.75
2023-04-20T06:59:04.587Z,1.58
2023-04-20T07:01:33.426Z,2.25
2023-04-20T07:04:02.520Z,1.80
2023-04-20T07:06:32.188Z,1.50
2023-04-20T07:09:01.024Z,1.58
2023-04-20T07:11:31.105Z,1.73
2023-04-20T07:13:59.898Z,1.33
2023-04-20T07:16:28.667Z,1.30
2023-04-20T07:18:57.409Z,2.38
2023-04-20T07:21:27.180Z,1.27
2023-04-20T07:23:56.580Z,1.70
2023-04-20T07:26:25.608Z,1.58
2023-04-20T07:28:55.756Z,1.45
2023-04-20T07:31:24.572Z,1.58
2023-04-20T07:33:53.314Z,1.42
2023-04-20T07:36:22.687Z,1.42
2023-04-20T07:38:51.611Z,2.50
2023-04-20T07:41:23.146Z,3.47
2023-04-20T07:43:51.916Z,1.60
2023-04-20T07:46:25.315Z,1.42
2023-04-20T07:48:54.155Z,1.90
2023-04-20T07:51:22.792Z,1.75
2023-04-20T07:53:51.894Z,1.80
2023-04-20T07:56:21.091Z,2.05
2023-04-20T07:58:49.859Z,1.40
2023-04-20T08:01:18.549Z,1.65
2023-04-20T08:03:48.848Z,1.25
2023-04-20T08:06:17.818Z,1.55
2023-04-20T08:08:46.676Z,1.80
2023-04-20T08:11:15.439Z,1.60
2023-04-20T08:13:44.152Z,1.65
2023-04-20T08:16:12.961Z,1.20
2023-04-20T08:18:42.490Z,1.20
2023-04-20T08:21:12.909Z,1.10
2023-04-20T08:23:41.631Z,1.20
2023-04-20T08:26:10.584Z,1.73
2023-04-20T08:28:39.358Z,1.10
2023-04-20T08:31:08.180Z,1.10
2023-04-20T08:33:37.165Z,1.00
2023-04-20T08:36:06.057Z,0.73
2023-04-20T08:38:36.336Z,1.00
2023-04-20T08:41:05.167Z,0.70
2023-04-20T08:43:34.060Z,1.17
2023-04-20T08:46:03.895Z,1.13
2023-04-20T08:48:36.376Z,1.20
2023-04-20T08:51:05.430Z,1.23
2023-04-20T08:53:34.204Z,0.80
2023-04-20T08:56:05.392Z,1.10
2023-04-20T08:58:34.704Z,1.40
2023-04-20T09:01:03.559Z,1.48
2023-04-20T09:03:36.049Z,1.45
2023-04-20T09:06:05.088Z,1.05
2023-04-20T09:08:36.678Z,1.30
2023-04-20T09:11:07.180Z,1.73
2023-04-20T09:13:36.038Z,1.10
2023-04-20T09:16:14.739Z,1.65
2023-04-20T09:18:53.468Z,0.98
2023-04-20T09:21:22.462Z,1.17
2023-04-20T09:24:01.579Z,0.90
2023-04-20T09:26:34.538Z,0.80
2023-04-20T09:29:03.465Z,0.75
2023-04-20T09:31:32.300Z,1.25
2023-04-20T09:34:01.896Z,1.15
2023-04-20T09:36:38.362Z,1.27
2023-04-20T09:39:08.916Z,1.40
2023-04-20T09:41:39.638Z,1.85
2023-04-20T09:44:08.941Z,1.10
2023-04-20T09:46:38.101Z,1.45
2023-04-20T09:49:07.955Z,0.90
2023-04-20T09:51:37.404Z,0.90
2023-04-20T09:54:06.735Z,1.13
2023-04-20T09:56:36.001Z,1.00
2023-04-20T09:59:06.183Z,1.35
2023-04-20T10:01:36.431Z,1.13
2023-04-20T10:04:05.869Z,1.20
2023-04-20T10:06:36.004Z,1.15
2023-04-20T10:09:05.748Z,1.10
2023-04-20T10:11:48.876Z,2.42
2023-04-20T10:14:23.275Z,1.13
2023-04-20T10:17:01.483Z,1.20
2023-04-20T10:19:40.435Z,1.30
2023-04-20T10:22:09.416Z,0.90
2023-04-20T10:24:39.084Z,1.02
2023-04-20T10:27:18.121Z,1.30
2023-04-20T10:29:48.286Z,1.20
2023-04-20T10:32:24.138Z,1.00
2023-04-20T10:35:02.662Z,1.40
2023-04-20T10:37:32.232Z,1.02
2023-04-20T10:40:01.411Z,1.88
2023-04-20T10:42:31.238Z,1.58
2023-04-20T10:45:01.327Z,1.10
2023-04-20T10:47:30.739Z,1.70
2023-04-20T10:50:07.933Z,1.50
2023-04-20T10:52:37.128Z,2.33
2023-04-20T10:55:06.884Z,1.10
2023-04-20T10:57:35.568Z,1.02
2023-04-20T11:00:17.065Z,1.40
2023-04-20T11:02:50.236Z,1.10
2023-04-20T11:05:19.760Z,1.13
2023-04-20T11:07:54.925Z,1.80
2023-04-20T11:10:24.747Z,1.20
2023-04-20T11:12:53.402Z,1.10
2023-04-20T11:15:32.854Z,1.33
2023-04-20T11:18:08.556Z,1.20
2023-04-20T11:20:37.552Z,1.55
2023-04-20T11:23:06.870Z,1.10
2023-04-20T11:25:36.079Z,0.93
2023-04-20T11:28:08.868Z,1.00
2023-04-20T11:30:42.797Z,1.30
2023-04-20T11:33:11.833Z,1.10
2023-04-20T11:35:41.472Z,1.00
2023-04-20T11:38:10.689Z,1.20
2023-04-20T11:40:39.381Z,1.38
2023-04-20T11:43:08.219Z,1.30
2023-04-20T11:45:37.093Z,1.30
2023-04-20T11:48:07.931Z,1.52
2023-04-20T11:50:38.265Z,1.77
2023-04-20T11:53:09.867Z,1.20
2023-04-20T11:55:38.683Z,1.73
2023-04-20T11:58:08.118Z,1.20
2023-04-20T12:00:36.889Z,1.05
2023-04-20T12:03:07.359Z,1.30
2023-04-20T12:05:36.150Z,1.52
2023-04-20T12:08:04.872Z,1.10
2023-04-20T12:10:33.536Z,1.20
2023-04-20T12:13:02.228Z,1.20
2023-04-20T12:15:31.014Z,1.42
2023-04-20T12:17:59.835Z,1.48
2023-04-20T12:20:30.064Z,0.90
2023-04-20T12:22:59.114Z,1.50
2023-04-20T12:25:27.897Z,1.20
2023-04-20T12:27:56.633Z,1.10
2023-04-20T12:30:25.491Z,1.45
2023-04-20T12:32:54.233Z,1.33
2023-04-20T12:35:23.344Z,1.30
2023-04-20T12:38:12.779Z,1.10
2023-04-20T12:40:42.793Z,1.23
2023-04-20T12:43:11.674Z,1.80
2023-04-20T12:45:40.318Z,1.20
2023-04-20T12:48:09.102Z,1.20
2023-04-20T12:50:38.060Z,1.02
2023-04-20T12:53:08.306Z,1.33
2023-04-20T12:55:37.259Z,1.10
2023-04-20T12:58:06.294Z,1.40
2023-04-20T13:00:35.154Z,1.27
2023-04-20T13:03:04.234Z,1.20
2023-04-20T13:05:33.144Z,2.17
2023-04-20T13:08:01.862Z,1.00
2023-04-20T13:10:31.930Z,1.20
2023-04-20T13:13:01.842Z,0.90
2023-04-20T13:15:38.980Z,0.82
2023-04-20T13:18:09.784Z,1.40
2023-04-20T13:20:38.658Z,1.08
2023-04-20T13:23:07.463Z,2.80
2023-04-20T13:25:38.913Z,1.20
2023-04-20T13:28:07.979Z,1.60
2023-04-20T13:30:36.805Z,1.48
2023-04-20T13:33:06.547Z,1.20
2023-04-20T13:35:36.096Z,1.15
2023-04-20T13:38:04.956Z,1.27
2023-04-20T13:40:33.694Z,0.82
2023-04-20T13:43:04.142Z,1.10
2023-04-20T13:45:32.985Z,1.70
2023-04-20T13:48:01.724Z,1.10
2023-04-20T13:50:31.266Z,1.13
2023-04-20T13:52:59.930Z,1.35
2023-04-20T13:55:29.202Z,1.23
2023-04-20T13:57:57.825Z,1.13
2023-04-20T14:00:28.020Z,1.10
2023-04-20T14:02:56.913Z,1.25
2023-04-20T14:05:25.749Z,1.10
2023-04-20T14:07:54.467Z,1.00
2023-04-20T14:10:23.199Z,4.15
2023-04-20T14:12:52.413Z,1.35
2023-04-20T14:15:21.446Z,1.23
2023-04-20T14:17:52.722Z,1.02
2023-04-20T14:20:21.806Z,1.15
2023-04-20T14:22:50.522Z,1.00
2023-04-20T14:25:19.172Z,1.00
2023-04-20T14:27:47.889Z,1.10
2023-04-20T14:30:17.052Z,1.10
2023-04-20T14:32:56.455Z,1.13
2023-04-20T14:35:25.206Z,1.30
2023-04-20T14:37:53.905Z,1.02
2023-04-20T14:40:22.728Z,1.02
2023-04-20T14:42:51.401Z,1.10
2023-04-20T14:45:20.513Z,0.90
2023-04-20T14:47:49.185Z,1.40
2023-04-20T14:50:19.544Z,0.80
2023-04-20T14:52:48.361Z,0.95
2023-04-20T14:55:17.027Z,1.10
2023-04-20T14:57:45.797Z,0.90
2023-04-20T15:00:14.841Z,1.27
2023-04-20T15:02:43.610Z,1.30
2023-04-20T15:05:12.434Z,0.85
2023-04-20T15:07:45.662Z,1.02
2023-04-20T15:10:14.568Z,0.93
2023-04-20T15:12:43.158Z,1.10
2023-04-20T15:15:12.380Z,1.10
2023-04-20T15:17:41.193Z,1.05
2023-04-20T15:20:10.930Z,0.95
2023-04-20T15:22:39.748Z,1.25
2023-04-20T15:25:10.560Z,1.50
2023-04-20T15:27:39.684Z,1.13
2023-04-20T15:30:09.162Z,1.08
2023-04-20T15:32:37.938Z,1.08
2023-04-20T15:35:06.901Z,0.90
2023-04-20T15:37:35.651Z,1.15
2023-04-20T15:40:04.390Z,1.23
2023-04-20T15:42:34.531Z,1.60
2023-04-20T15:45:03.424Z,1.10
2023-04-20T15:47:32.512Z,1.15
2023-04-20T15:50:03.384Z,1.10
2023-04-20T15:52:32.667Z,1.20
2023-04-20T15:55:01.387Z,1.00
2023-04-20T15:57:30.940Z,1.10
2023-04-20T16:00:01.259Z,1.00
2023-04-20T16:02:30.237Z,1.10
2023-04-20T16:04:59.579Z,1.20
2023-04-20T16:07:28.782Z,1.10
2023-04-20T16:09:57.811Z,1.10
2023-04-20T16:12:26.650Z,1.08
2023-04-20T16:14:55.627Z,1.00
2023-04-20T16:17:25.728Z,1.55
2023-04-20T16:19:54.508Z,1.10
2023-04-20T16:22:23.282Z,1.20
2023-04-20T16:24:51.982Z,1.05
2023-04-20T16:27:20.861Z,0.80
2023-04-20T16:29:49.524Z,1.13
2023-04-20T16:32:18.202Z,1.15
2023-04-20T16:34:48.164Z,1.20
2023-04-20T16:37:16.846Z,0.80
2023-04-20T16:39:46.113Z,1.23
2023-04-20T16:42:14.786Z,1.23
2023-04-20T16:44:43.494Z,1.55
2023-04-20T16:47:12.159Z,1.40
2023-04-20T16:49:41.032Z,1.23
2023-04-20T16:52:11.157Z,1.65
2023-04-20T16:54:41.689Z,1.20
2023-04-20T16:57:11.027Z,1.23
2023-04-20T16:59:39.678Z,1.35
2023-04-20T17:02:08.554Z,1.50
2023-04-20T17:04:37.246Z,1.00
2023-04-20T17:07:06.294Z,0.80
2023-04-20T17:09:36.598Z,1.10
2023-04-20T17:12:05.369Z,1.10
2023-04-20T17:14:34.595Z,1.50
2023-04-20T17:17:03.468Z,1.70
2023-04-20T17:19:32.263Z,2.03
2023-04-20T17:22:03.505Z,1.70
2023-04-20T17:24:32.347Z,1.38
2023-04-20T17:27:02.651Z,1.83
2023-04-20T17:29:34.890Z,1.65
2023-04-20T17:32:03.838Z,1.55
2023-04-20T17:34:32.991Z,1.10
2023-04-20T17:37:01.857Z,2.58
2023-04-20T17:39:31.675Z,1.88
2023-04-20T17:42:01.780Z,2.05
2023-04-20T17:44:30.593Z,1.90
2023-04-20T17:47:01.218Z,2.08
2023-04-20T17:49:31.233Z,1.92
2023-04-20T17:52:00.509Z,1.80
2023-04-20T17:54:29.663Z,2.30
2023-04-20T17:56:58.881Z,2.35
2023-04-20T17:59:30.815Z,1.80
2023-04-20T18:02:00.111Z,2.10
2023-04-20T18:04:29.857Z,2.25
2023-04-20T18:06:58.941Z,2.65
2023-04-20T18:09:27.716Z,1.77
2023-04-20T18:11:56.353Z,2.80
2023-04-20T18:14:25.278Z,1.70
2023-04-20T18:16:56.569Z,1.98
2023-04-20T18:19:25.302Z,1.95
2023-04-20T18:21:53.980Z,1.85
2023-04-20T18:24:22.751Z,2.03
2023-04-20T18:26:51.439Z,2.03
2023-04-20T18:29:20.386Z,2.15
2023-04-20T18:31:50.069Z,2.03
2023-04-20T18:34:20.768Z,2.47
2023-04-20T18:36:49.782Z,2.20
2023-04-20T18:39:18.506Z,1.80
2023-04-20T18:41:47.202Z,2.38
2023-04-20T18:44:16.095Z,2.30
2023-04-20T18:46:45.101Z,2.70
2023-04-20T18:49:14.025Z,2.60
2023-04-20T18:51:44.101Z,2.70
2023-04-20T18:54:12.798Z,3.00
2023-04-20T18:56:41.526Z,2.65
2023-04-20T18:59:10.815Z,2.50
2023-04-20T19:01:40.705Z,2.92
2023-04-20T19:04:09.953Z,2.25
2023-04-20T19:06:38.861Z,2.72
2023-04-20T19:09:09.169Z,2.28
2023-04-20T19:11:38.143Z,2.42
2023-04-20T19:14:06.901Z,2.28
2023-04-20T19:16:36.277Z,2.80
2023-04-20T19:19:05.168Z,2.85
2023-04-20T19:21:33.998Z,2.65
2023-04-20T19:24:02.680Z,2.55
2023-04-20T19:26:32.985Z,2.58
2023-04-20T19:29:01.931Z,2.75
2023-04-20T19:31:36.729Z,2.80
2023-04-20T19:34:05.972Z,2.90
2023-04-20T19:36:35.058Z,2.85
2023-04-20T19:39:04.251Z,2.72
2023-04-20T19:41:35.175Z,2.85
2023-04-20T19:44:06.192Z,2.90
2023-04-20T19:46:35.215Z,3.10
2023-04-20T19:49:04.027Z,2.90
2023-04-20T19:51:33.101Z,2.70
2023-04-20T19:54:03.575Z,2.10
2023-04-20T19:56:32.410Z,3.00
2023-04-20T19:59:02.695Z,2.60
2023-04-20T20:01:31.525Z,3.05
2023-04-20T20:04:00.422Z,3.70
2023-04-20T20:06:29.243Z,3.08
2023-04-20T20:08:57.974Z,3.83
2023-04-20T20:11:26.791Z,2.63
2023-04-20T20:13:55.442Z,2.38
2023-04-20T20:16:28.176Z,2.65
2023-04-20T20:18:56.935Z,3.38
2023-04-20T20:21:25.593Z,2.58
2023-04-20T20:23:54.665Z,2.25
2023-04-20T20:26:23.895Z,2.80
2023-04-20T20:28:52.661Z,3.65
2023-04-20T20:31:21.801Z,2.63
2023-04-20T20:33:52.764Z,3.17
2023-04-20T20:36:22.345Z,2.80
2023-04-20T20:38:51.344Z,3.25
2023-04-20T20:41:21.387Z,2.67
2023-04-20T20:43:51.744Z,2.70
2023-04-20T20:46:20.596Z,4.15
2023-04-20T20:48:49.348Z,2.35
2023-04-20T20:51:19.416Z,2.60
2023-04-20T20:53:48.356Z,2.85
2023-04-20T20:56:17.020Z,3.00
2023-04-20T20:58:45.770Z,2.35
2023-04-20T21:01:14.512Z,2.78
2023-04-20T21:03:43.425Z,2.47
2023-04-20T21:06:12.180Z,2.75
2023-04-20T21:08:42.233Z,2.53
2023-04-20T21:11:10.868Z,2.50
2023-04-20T21:13:39.560Z,3.08
2023-04-20T21:16:08.403Z,2.78
2023-04-20T21:18:37.176Z,2.78
2023-04-20T21:21:05.941Z,2.80
2023-04-20T21:23:34.603Z,2.83
2023-04-20T21:26:04.677Z,2.67
2023-04-20T21:28:33.467Z,2.47
2023-04-20T21:31:02.124Z,2.70
2023-04-20T21:33:30.904Z,2.92
2023-04-20T21:35:59.640Z,2.90
2023-04-20T21:38:28.436Z,2.95
2023-04-20T21:40:57.331Z,2.55
2023-04-20T21:43:27.795Z,2.72
2023-04-20T21:45:56.842Z,2.95
2023-04-20T21:48:26.038Z,2.85
2023-04-20T21:50:54.714Z,3.10
2023-04-20T21:53:23.508Z,3.17
2023-04-20T21:55:52.438Z,3.30
2023-04-20T21:58:21.261Z,3.10
2023-04-20T22:00:51.983Z,3.97
2023-04-20T22:03:20.952Z,3.33
2023-04-20T22:05:49.828Z,3.40
2023-04-20T22:08:21.978Z,3.95
2023-04-20T22:10:51.063Z,2.92
2023-04-20T22:13:19.910Z,3.67
2023-04-20T22:15:51.387Z,3.45
2023-04-20T22:18:22.142Z,3.83
2023-04-20T22:20:51.425Z,4.50
2023-04-20T22:23:20.179Z,3.88
2023-04-20T22:25:48.866Z,3.30
2023-04-20T22:28:17.660Z,3.50
2023-04-20T22:30:46.586Z,3.13
2023-04-20T22:33:15.352Z,2.85
2023-04-20T22:35:45.784Z,3.63
2023-04-20T22:38:14.610Z,3.65
2023-04-20T22:40:43.293Z,3.72
2023-04-20T22:43:12.205Z,3.30
2023-04-20T22:45:41.053Z,3.00
2023-04-20T22:48:10.780Z,3.97
2023-04-20T22:50:39.433Z,3.25
2023-04-20T22:53:09.514Z,3.78
2023-04-20T22:55:38.277Z,4.43
2023-04-20T22:58:06.976Z,3.83
2023-04-20T23:00:35.785Z,3.88
2023-04-20T23:03:04.723Z,3.83
2023-04-20T23:05:33.860Z,3.97
2023-04-20T23:08:02.589Z,4.18
2023-04-20T23:10:32.715Z,3.72
2023-04-20T23:13:02.210Z,3.90
2023-04-20T23:15:30.977Z,3.25
2023-04-20T23:17:59.732Z,4.40
2023-04-20T23:20:28.789Z,3.67
2023-04-20T23:22:57.424Z,3.42
2023-04-20T23:25:26.510Z,4.03
2023-04-20T23:27:56.633Z,3.35
2023-04-20T23:30:25.319Z,3.60
2023-04-20T23:32:54.063Z,4.03
2023-04-20T23:35:23.122Z,3.50
2023-04-20T23:37:51.813Z,3.95
2023-04-20T23:40:20.499Z,3.63
2023-04-20T23:42:49.212Z,4.57
2023-04-20T23:45:19.374Z,4.25
2023-04-20T23:47:48.131Z,4.50
2023-04-20T23:50:17.087Z,5.63
2023-04-20T23:52:45.845Z,5.05
2023-04-20T23:55:14.657Z,6.13
2023-04-20T23:57:43.374Z,5.95
